createdAt,value
2019-04-28T00:02:04.951Z,80.90
2019-04-28T00:04:34.235Z,81.80
2019-04-28T00:07:03.286Z,82.40
2019-04-28T00:09:32.420Z,83.00
2019-04-28T00:12:01.943Z,83.20
2019-04-28T00:14:31.726Z,84.00
2019-04-28T00:17:01.124Z,85.20
2019-04-28T00:19:31.060Z,86.00
2019-04-28T00:22:07.535Z,87.00
2019-04-28T00:24:59.080Z,87.70
2019-04-28T00:27:28.103Z,88.40
2019-04-28T00:29:57.246Z,88.90
2019-04-28T00:32:26.310Z,89.20
2019-04-28T00:34:55.562Z,89.30
2019-04-28T00:37:28.643Z,90.00
2019-04-28T00:39:57.653Z,90.20
2019-04-28T00:42:26.920Z,90.40
2019-04-28T00:44:56.138Z,90.60
2019-04-28T00:47:25.305Z,91.00
2019-04-28T00:49:54.779Z,91.40
2019-04-28T00:52:23.937Z,91.60
2019-04-28T00:54:53.282Z,91.80
2019-04-28T00:57:22.451Z,92.60
2019-04-28T00:59:57.623Z,93.40
2019-04-28T01:02:31.379Z,94.10
2019-04-28T01:05:01.532Z,94.50
2019-04-28T01:07:32.950Z,94.50
2019-04-28T01:10:01.919Z,94.50
2019-04-28T01:12:31.267Z,94.60
2019-04-28T01:15:04.553Z,94.50
2019-04-28T01:17:54.894Z,94.70
2019-04-28T01:20:24.464Z,94.30
2019-04-28T01:22:53.634Z,94.30
2019-04-28T01:25:22.846Z,94.30
2019-04-28T01:27:56.312Z,94.30
2019-04-28T01:30:45.450Z,94.10
2019-04-28T01:33:29.476Z,94.10
2019-04-28T01:36:00.361Z,94.20
2019-04-28T01:38:30.288Z,94.30
2019-04-28T01:40:59.969Z,94.40
2019-04-28T01:43:31.322Z,94.40
2019-04-28T01:46:00.489Z,94.40
2019-04-28T01:48:31.452Z,94.50
2019-04-28T01:51:00.605Z,94.40
2019-04-28T01:53:30.835Z,94.40
2019-04-28T01:56:00.181Z,94.50
2019-04-28T01:58:29.759Z,94.50
2019-04-28T02:00:59.571Z,94.50
2019-04-28T02:03:30.749Z,94.10
2019-04-28T02:06:01.065Z,94.20
2019-04-28T02:08:30.451Z,94.20
2019-04-28T02:11:00.113Z,94.10
2019-04-28T02:13:29.980Z,94.00
2019-04-28T02:16:00.063Z,94.00
2019-04-28T02:18:29.913Z,94.10
2019-04-28T02:21:20.523Z,93.90
2019-04-28T02:23:51.439Z,93.70
2019-04-28T02:26:20.601Z,93.40
2019-04-28T02:28:50.408Z,93.50
2019-04-28T02:31:21.522Z,93.70
2019-04-28T02:33:50.483Z,93.50
2019-04-28T02:36:21.067Z,93.30
2019-04-28T02:38:51.297Z,93.30
2019-04-28T02:41:20.892Z,93.40
2019-04-28T02:43:51.036Z,93.60
2019-04-28T02:46:20.763Z,93.80
2019-04-28T02:48:50.809Z,94.10
2019-04-28T02:51:30.774Z,93.80
2019-04-28T02:54:00.641Z,93.80
2019-04-28T02:56:30.788Z,93.50
2019-04-28T02:59:01.125Z,93.40
2019-04-28T03:01:30.830Z,93.20
2019-04-28T03:04:00.429Z,93.00
2019-04-28T03:06:30.603Z,93.10
2019-04-28T03:09:00.351Z,93.40
2019-04-28T03:11:31.458Z,93.40
2019-04-28T03:14:01.060Z,93.30
2019-04-28T03:16:30.565Z,93.40
2019-04-28T03:19:01.215Z,93.30
2019-04-28T03:21:31.357Z,93.30
2019-04-28T03:24:01.413Z,93.20
2019-04-28T03:26:50.972Z,93.10
2019-04-28T03:29:27.173Z,93.10
2019-04-28T03:32:30.017Z,93.00
2019-04-28T03:34:53.159Z,93.00
2019-04-28T03:37:21.563Z,93.00
2019-04-28T03:39:50.447Z,93.60
2019-04-28T03:42:21.683Z,93.90
2019-04-28T03:44:51.086Z,94.60
2019-04-28T03:47:21.366Z,94.80
2019-04-28T03:49:50.945Z,95.10
2019-04-28T03:52:21.136Z,95.40
2019-04-28T03:54:51.164Z,95.70
2019-04-28T03:57:21.611Z,95.70
2019-04-28T03:59:51.436Z,96.00
2019-04-28T04:02:23.827Z,96.20
2019-04-28T04:04:52.556Z,96.30
2019-04-28T04:07:22.261Z,96.20
2019-04-28T04:10:22.303Z,96.40
2019-04-28T04:13:14.439Z,96.60
2019-04-28T04:15:57.871Z,96.70
2019-04-28T04:18:36.032Z,96.70
2019-04-28T04:21:05.442Z,97.00
2019-04-28T04:23:34.832Z,97.00
2019-04-28T04:26:04.024Z,97.20
2019-04-28T04:28:33.158Z,97.20
2019-04-28T04:31:03.220Z,97.20
2019-04-28T04:33:32.798Z,97.20
2019-04-28T04:36:02.085Z,97.90
2019-04-28T04:38:31.670Z,98.20
2019-04-28T04:41:01.689Z,98.80
2019-04-28T04:43:31.557Z,99.10
2019-04-28T04:46:22.350Z,99.10
2019-04-28T04:48:54.773Z,99.30
2019-04-28T04:51:23.991Z,99.60
2019-04-28T04:53:53.319Z,99.90
2019-04-28T04:56:22.498Z,99.90
2019-04-28T04:58:51.722Z,99.90
2019-04-28T05:01:33.319Z,99.90
2019-04-28T05:04:11.995Z,99.90
2019-04-28T05:06:41.751Z,99.90
2019-04-28T05:09:13.221Z,99.90
2019-04-28T05:11:42.536Z,99.90
2019-04-28T05:14:14.029Z,99.90
2019-04-28T05:16:44.896Z,99.90
2019-04-28T05:19:17.154Z,99.90
2019-04-28T05:21:46.414Z,99.90
2019-04-28T05:24:35.458Z,99.90
2019-04-28T05:27:05.423Z,99.90
2019-04-28T05:29:36.851Z,99.90
2019-04-28T05:32:06.083Z,99.90
2019-04-28T05:34:39.209Z,99.90
2019-04-28T05:37:06.560Z,99.90
2019-04-28T05:39:37.888Z,99.90
2019-04-28T05:42:06.478Z,99.90
2019-04-28T05:44:37.668Z,99.90
2019-04-28T05:47:06.909Z,99.90
2019-04-28T05:49:59.891Z,99.90
2019-04-28T05:52:57.835Z,99.90
2019-04-28T05:55:51.312Z,99.90
2019-04-28T05:58:50.443Z,99.90
2019-04-28T06:01:42.913Z,99.90
2019-04-28T06:04:12.396Z,99.90
2019-04-28T06:06:43.607Z,99.90
2019-04-28T06:09:39.721Z,99.90
2019-04-28T06:12:11.383Z,99.90
2019-04-28T06:14:42.297Z,99.90
2019-04-28T06:17:11.577Z,99.90
2019-04-28T06:19:41.353Z,99.90
2019-04-28T06:22:10.698Z,99.90
2019-04-28T06:24:39.872Z,99.90
2019-04-28T06:27:09.748Z,99.90
2019-04-28T06:29:39.209Z,99.90
2019-04-28T06:32:08.615Z,99.90
2019-04-28T06:34:37.740Z,99.90
2019-04-28T06:37:06.886Z,99.90
2019-04-28T06:39:36.002Z,99.90
2019-04-28T06:42:05.550Z,99.90
2019-04-28T06:44:35.730Z,99.90
2019-04-28T06:47:07.433Z,99.90
2019-04-28T06:49:36.814Z,99.90
2019-04-28T06:52:09.289Z,99.90
2019-04-28T06:54:38.662Z,99.90
2019-04-28T06:57:08.797Z,99.90
2019-04-28T06:59:38.268Z,99.90
2019-04-28T07:02:07.628Z,99.90
2019-04-28T07:04:36.868Z,99.90
2019-04-28T07:07:06.588Z,99.90
2019-04-28T07:09:36.080Z,99.90
2019-04-28T07:12:05.730Z,99.70
2019-04-28T07:14:35.008Z,99.50
2019-04-28T07:17:04.966Z,99.90
2019-04-28T07:19:34.195Z,99.90
2019-04-28T07:22:15.082Z,99.90
2019-04-28T07:24:44.943Z,99.90
2019-04-28T07:27:14.155Z,99.90
2019-04-28T07:29:43.327Z,99.90
2019-04-28T07:32:12.530Z,99.90
2019-04-28T07:34:41.676Z,99.90
2019-04-28T07:37:11.115Z,99.90
2019-04-28T07:39:40.356Z,99.90
2019-04-28T07:42:09.671Z,99.90
2019-04-28T07:44:38.783Z,99.90
2019-04-28T07:47:08.109Z,99.90
2019-04-28T07:49:38.279Z,99.90
2019-04-28T07:52:28.523Z,99.90
2019-04-28T07:54:59.735Z,99.90
2019-04-28T07:57:29.030Z,99.90
2019-04-28T07:59:58.167Z,99.90
2019-04-28T08:02:27.470Z,99.90
2019-04-28T08:04:57.119Z,99.90
2019-04-28T08:07:26.209Z,99.90
2019-04-28T08:09:55.323Z,99.90
2019-04-28T08:12:24.711Z,99.80
2019-04-28T08:14:53.748Z,99.90
2019-04-28T08:17:22.869Z,99.90
2019-04-28T08:19:52.156Z,99.90
2019-04-28T08:22:23.102Z,99.90
2019-04-28T08:24:52.304Z,99.90
2019-04-28T08:27:21.496Z,99.60
2019-04-28T08:29:58.246Z,99.30
2019-04-28T08:32:44.519Z,99.40
2019-04-28T08:35:16.688Z,99.10
2019-04-28T08:37:45.728Z,98.90
2019-04-28T08:40:15.283Z,98.10
2019-04-28T08:42:44.530Z,98.60
2019-04-28T08:45:14.102Z,98.40
2019-04-28T08:47:43.732Z,97.90
2019-04-28T08:50:13.301Z,97.70
2019-04-28T08:52:42.893Z,97.70
2019-04-28T08:55:13.647Z,97.80
2019-04-28T08:57:42.653Z,97.90
2019-04-28T09:00:12.562Z,97.70
2019-04-28T09:02:42.062Z,96.80
2019-04-28T09:05:11.318Z,96.20
2019-04-28T09:07:41.146Z,95.40
2019-04-28T09:10:10.612Z,95.10
2019-04-28T09:12:40.314Z,94.80
2019-04-28T09:15:10.429Z,94.80
2019-04-28T09:17:39.664Z,93.70
2019-04-28T09:20:09.064Z,93.50
2019-04-28T09:22:38.521Z,94.10
2019-04-28T09:25:09.294Z,93.70
2019-04-28T09:27:48.779Z,93.30
2019-04-28T09:30:22.943Z,92.40
2019-04-28T09:33:00.732Z,92.10
2019-04-28T09:35:32.004Z,92.00
2019-04-28T09:38:05.471Z,92.20
2019-04-28T09:40:53.942Z,91.70
2019-04-28T09:43:30.929Z,91.40
2019-04-28T09:46:08.804Z,90.80
2019-04-28T09:48:38.000Z,90.40
2019-04-28T09:51:07.224Z,90.70
2019-04-28T09:53:37.409Z,90.50
2019-04-28T09:56:08.433Z,91.00
2019-04-28T09:58:38.118Z,91.30
2019-04-28T10:01:07.502Z,91.40
2019-04-28T10:03:38.740Z,91.30
2019-04-28T10:06:08.070Z,91.00
2019-04-28T10:08:37.502Z,90.60
2019-04-28T10:11:08.243Z,90.60
2019-04-28T10:13:41.674Z,89.80
2019-04-28T10:16:16.923Z,88.10
2019-04-28T10:18:47.204Z,89.00
2019-04-28T10:21:18.965Z,88.00
2019-04-28T10:23:49.983Z,88.00
2019-04-28T10:26:19.545Z,87.20
2019-04-28T10:28:52.167Z,87.40
2019-04-28T10:31:21.287Z,85.80
2019-04-28T10:33:54.383Z,86.60
2019-04-28T10:36:25.144Z,85.90
2019-04-28T10:38:55.964Z,86.20
2019-04-28T10:41:33.250Z,86.80
2019-04-28T10:44:02.876Z,85.00
2019-04-28T10:46:32.102Z,84.80
2019-04-28T10:49:02.679Z,84.80
2019-04-28T10:51:31.853Z,84.10
2019-04-28T10:54:02.373Z,83.60
2019-04-28T10:56:31.596Z,83.00
2019-04-28T10:59:01.447Z,83.10
2019-04-28T11:01:30.672Z,83.80
2019-04-28T11:04:02.853Z,83.10
2019-04-28T11:06:34.792Z,82.70
2019-04-28T11:09:30.056Z,83.10
2019-04-28T11:11:49.229Z,81.80
2019-04-28T11:14:18.581Z,80.30
2019-04-28T11:16:47.864Z,79.40
2019-04-28T11:19:16.980Z,79.20
2019-04-28T11:21:46.125Z,79.50
2019-04-28T11:24:15.812Z,79.20
2019-04-28T11:26:44.995Z,78.20
2019-04-28T11:29:14.658Z,77.20
2019-04-28T11:31:45.354Z,77.00
2019-04-28T11:34:36.891Z,76.70
2019-04-28T11:37:07.309Z,77.20
2019-04-28T11:39:40.251Z,78.00
2019-04-28T11:42:09.745Z,78.80
2019-04-28T11:44:39.346Z,79.10
2019-04-28T11:47:10.716Z,80.00
2019-04-28T11:49:40.464Z,80.90
2019-04-28T11:52:09.880Z,81.30
2019-04-28T11:54:40.077Z,81.90
2019-04-28T11:57:29.656Z,82.20
2019-04-28T12:00:00.160Z,81.90
2019-04-28T12:02:30.051Z,82.10
2019-04-28T12:05:00.238Z,82.30
2019-04-28T12:07:51.966Z,82.50
2019-04-28T12:10:25.377Z,82.30
2019-04-28T12:13:22.772Z,80.90
2019-04-28T12:16:04.611Z,79.60
2019-04-28T12:18:51.484Z,79.50
2019-04-28T12:21:20.953Z,79.10
2019-04-28T12:23:51.539Z,77.70
2019-04-28T12:26:20.718Z,77.30
2019-04-28T12:28:50.061Z,77.80
2019-04-28T12:31:19.261Z,76.90
2019-04-28T12:33:48.332Z,74.90
2019-04-28T12:36:18.203Z,75.80
2019-04-28T12:38:47.470Z,75.20
2019-04-28T12:41:16.979Z,75.30
2019-04-28T12:43:46.609Z,75.80
2019-04-28T12:46:15.757Z,75.10
2019-04-28T12:48:48.141Z,74.70
2019-04-28T12:51:18.313Z,74.90
2019-04-28T12:53:51.940Z,75.30
2019-04-28T12:56:21.598Z,75.20
2019-04-28T12:58:59.007Z,75.20
2019-04-28T13:01:38.841Z,75.40
2019-04-28T13:04:30.293Z,73.90
2019-04-28T13:07:04.713Z,73.00
2019-04-28T13:09:34.260Z,72.60
2019-04-28T13:12:16.187Z,72.70
2019-04-28T13:17:52.639Z,72.00
2019-04-28T13:20:24.790Z,71.70
2019-04-28T13:22:54.974Z,72.60
2019-04-28T13:25:26.806Z,73.60
2019-04-28T13:27:56.377Z,74.40
2019-04-28T13:30:27.270Z,75.00
2019-04-28T13:32:58.160Z,75.00
2019-04-28T13:35:27.761Z,74.50
2019-04-28T13:37:57.123Z,72.90
2019-04-28T13:40:30.170Z,71.60
2019-04-28T13:42:59.408Z,70.50
2019-04-28T13:45:29.277Z,69.10
2019-04-28T13:48:15.455Z,70.40
2019-04-28T13:50:45.468Z,68.80
2019-04-28T13:53:15.296Z,68.60
2019-04-28T13:56:04.643Z,68.20
2019-04-28T13:58:42.748Z,68.90
2019-04-28T14:01:32.156Z,69.70
2019-04-28T14:04:22.664Z,69.10
2019-04-28T14:06:54.649Z,69.40
2019-04-28T14:09:24.521Z,70.50
2019-04-28T14:12:04.054Z,71.60
2019-04-28T14:14:34.300Z,72.20
2019-04-28T14:17:03.692Z,72.00
2019-04-28T14:19:33.310Z,71.30
2019-04-28T14:22:02.675Z,70.60
2019-04-28T14:24:31.876Z,70.10
2019-04-28T14:27:01.227Z,70.20
2019-04-28T14:29:30.534Z,69.20
2019-04-28T14:32:00.211Z,69.40
2019-04-28T14:34:33.053Z,69.80
2019-04-28T14:37:04.123Z,69.80
2019-04-28T14:39:44.830Z,69.30
2019-04-28T14:42:15.460Z,70.40
2019-04-28T14:44:45.989Z,70.60
2019-04-28T14:47:23.472Z,71.00
2019-04-28T14:49:52.988Z,71.60
2019-04-28T14:52:23.697Z,71.70
2019-04-28T14:54:58.217Z,71.90
2019-04-28T14:57:27.722Z,71.80
2019-04-28T15:00:02.754Z,71.20
2019-04-28T15:02:43.519Z,71.00
2019-04-28T15:05:28.102Z,70.60
2019-04-28T15:08:13.685Z,68.20
2019-04-28T15:10:58.142Z,67.00
2019-04-28T15:13:28.155Z,67.90
2019-04-28T15:15:57.891Z,69.40
2019-04-28T15:18:27.384Z,68.70
2019-04-28T15:20:56.835Z,66.40
2019-04-28T15:23:26.891Z,66.90
2019-04-28T15:25:56.069Z,66.40
2019-04-28T15:28:26.262Z,66.00
2019-04-28T15:30:55.670Z,65.70
2019-04-28T15:33:24.970Z,64.40
2019-04-28T15:35:54.689Z,63.10
2019-04-28T15:38:23.954Z,62.30
2019-04-28T15:40:53.004Z,62.10
2019-04-28T15:43:22.276Z,62.50
2019-04-28T15:45:52.579Z,62.60
2019-04-28T15:48:21.989Z,62.80
2019-04-28T15:50:52.158Z,61.90
2019-04-28T15:53:21.862Z,62.80
2019-04-28T15:55:58.905Z,62.40
2019-04-28T15:58:33.341Z,62.10
2019-04-28T16:01:04.214Z,61.80
2019-04-28T16:03:35.560Z,60.40
2019-04-28T16:06:05.529Z,60.20
2019-04-28T16:08:34.962Z,60.30
2019-04-28T16:11:04.662Z,60.00
2019-04-28T16:13:33.969Z,60.00
2019-04-28T16:16:03.069Z,60.90
2019-04-28T16:18:32.267Z,61.30
2019-04-28T16:21:18.324Z,61.30
2019-04-28T16:23:48.827Z,61.80
2019-04-28T16:26:18.741Z,61.40
2019-04-28T16:28:48.006Z,61.60
2019-04-28T16:31:17.776Z,61.80
2019-04-28T16:34:06.387Z,60.80
2019-04-28T16:36:38.762Z,61.30
2019-04-28T16:39:08.203Z,61.00
2019-04-28T16:41:39.969Z,61.20
2019-04-28T16:44:09.756Z,60.90
2019-04-28T16:46:39.178Z,60.10
2019-04-28T16:49:09.210Z,58.70
2019-04-28T16:51:39.504Z,58.60
2019-04-28T16:54:09.561Z,58.70
2019-04-28T16:56:59.336Z,59.10
2019-04-28T16:59:48.176Z,59.00
2019-04-28T17:02:29.624Z,59.00
2019-04-28T17:05:00.311Z,59.30
2019-04-28T17:07:30.096Z,59.70
2019-04-28T17:09:59.876Z,60.30
2019-04-28T17:12:29.261Z,61.30
2019-04-28T17:15:00.619Z,63.30
2019-04-28T17:17:29.827Z,63.10
2019-04-28T17:20:02.215Z,63.80
2019-04-28T17:22:31.450Z,63.90
2019-04-28T17:25:01.929Z,64.20
2019-04-28T17:27:32.969Z,64.50
2019-04-28T17:30:02.629Z,64.80
2019-04-28T17:32:31.898Z,64.90
2019-04-28T17:35:01.349Z,65.30
2019-04-28T17:37:30.562Z,65.50
2019-04-28T17:40:01.090Z,65.40
2019-04-28T17:42:30.276Z,65.20
2019-04-28T17:44:59.906Z,65.40
2019-04-28T17:47:29.679Z,64.00
2019-04-28T17:50:11.543Z,64.60
2019-04-28T17:53:13.148Z,64.40
2019-04-28T17:55:43.097Z,64.90
2019-04-28T17:58:12.650Z,65.40
2019-04-28T18:01:02.275Z,65.90
2019-04-28T18:03:51.711Z,66.50
2019-04-28T18:06:22.651Z,66.90
2019-04-28T18:09:01.789Z,67.20
2019-04-28T18:11:32.375Z,67.70
2019-04-28T18:14:05.877Z,68.00
2019-04-28T18:17:19.981Z,68.70
2019-04-28T18:20:05.805Z,69.20
2019-04-28T18:22:36.673Z,70.10
2019-04-28T18:25:07.736Z,70.60
2019-04-28T18:27:37.163Z,71.70
2019-04-28T18:30:10.849Z,72.40
2019-04-28T18:33:09.360Z,72.70
2019-04-28T18:35:50.814Z,73.30
2019-04-28T18:38:46.125Z,73.70
2019-04-28T18:41:33.396Z,73.90
2019-04-28T18:44:25.307Z,74.40
2019-04-28T18:47:00.553Z,74.60
2019-04-28T18:49:31.491Z,75.10
2019-04-28T18:52:09.879Z,75.70
2019-04-28T18:54:41.321Z,76.20
2019-04-28T18:57:34.161Z,77.00
2019-04-28T19:00:16.602Z,77.90
2019-04-28T19:02:51.411Z,79.10
2019-04-28T19:05:23.682Z,79.70
2019-04-28T19:08:17.352Z,79.90
2019-04-28T19:10:59.989Z,80.20
2019-04-28T19:13:31.991Z,80.40
2019-04-28T19:16:26.471Z,80.80
2019-04-28T19:18:57.970Z,80.80
2019-04-28T19:21:27.471Z,81.30
2019-04-28T19:23:56.778Z,81.60
2019-04-28T19:26:27.029Z,82.00
2019-04-28T19:28:57.079Z,82.10
2019-04-28T19:31:26.975Z,83.10
2019-04-28T19:33:58.257Z,82.40
2019-04-28T19:36:27.764Z,82.80
2019-04-28T19:39:03.574Z,83.10
2019-04-28T19:41:28.872Z,83.50
2019-04-28T19:43:58.874Z,83.60
2019-04-28T19:46:28.928Z,84.10
2019-04-28T19:49:23.646Z,84.40
2019-04-28T19:52:18.544Z,84.50
2019-04-28T19:55:27.815Z,85.00
2019-04-28T19:58:12.385Z,85.30
2019-04-28T20:00:57.260Z,85.50
2019-04-28T20:03:26.342Z,86.00
2019-04-28T20:05:56.833Z,86.40
2019-04-28T20:08:31.749Z,86.80
2019-04-28T20:11:01.398Z,87.10
2019-04-28T20:13:31.644Z,87.30
2019-04-28T20:16:04.970Z,88.30
2019-04-28T20:19:01.112Z,88.90
2019-04-28T20:21:39.089Z,88.50
2019-04-28T20:24:08.027Z,88.60
2019-04-28T20:26:37.569Z,88.30
2019-04-28T20:29:12.910Z,88.60
2019-04-28T20:32:23.032Z,88.90
2019-04-28T20:34:53.126Z,89.20
2019-04-28T20:37:38.649Z,90.00
2019-04-28T20:41:09.600Z,90.10
2019-04-28T20:43:53.158Z,90.30
2019-04-28T20:46:22.460Z,90.70
2019-04-28T20:48:51.806Z,91.00
2019-04-28T20:51:21.496Z,91.30
2019-04-28T20:53:53.593Z,91.50
2019-04-28T20:56:25.606Z,91.80
2019-04-28T20:58:55.030Z,92.00
2019-04-28T21:01:30.946Z,92.30
2019-04-28T21:04:05.327Z,92.40
2019-04-28T21:06:38.754Z,92.60
2019-04-28T21:09:12.051Z,92.70
2019-04-28T21:11:41.310Z,92.70
2019-04-28T21:14:12.630Z,92.60
2019-04-28T21:16:51.490Z,92.90
2019-04-28T21:19:23.126Z,93.00
2019-04-28T21:21:56.623Z,93.10
2019-04-28T21:24:28.727Z,93.10
2019-04-28T21:27:01.684Z,93.20
2019-04-28T21:29:31.593Z,93.30
2019-04-28T21:32:07.059Z,93.30
2019-04-28T21:34:36.310Z,93.30
2019-04-28T21:37:06.843Z,93.30
2019-04-28T21:39:37.791Z,93.20
2019-04-28T21:42:09.768Z,93.30
2019-04-28T21:45:04.179Z,93.40
2019-04-28T21:47:37.999Z,93.40
2019-04-28T21:50:07.492Z,93.40
2019-04-28T21:52:37.299Z,93.40
2019-04-28T21:55:08.781Z,93.60
2019-04-28T21:57:47.219Z,93.90
2019-04-28T22:00:23.407Z,94.10
2019-04-28T22:02:54.208Z,94.20
2019-04-28T22:05:30.473Z,94.40
2019-04-28T22:07:58.028Z,94.60
2019-04-28T22:10:29.827Z,94.70
2019-04-28T22:13:01.216Z,94.90
2019-04-28T22:15:32.033Z,95.00
2019-04-28T22:18:03.213Z,95.20
2019-04-28T22:20:33.760Z,95.20
2019-04-28T22:23:17.972Z,95.10
2019-04-28T22:25:39.002Z,94.90
2019-04-28T22:28:08.049Z,95.00
2019-04-28T22:30:37.223Z,95.40
2019-04-28T22:33:06.425Z,95.40
2019-04-28T22:35:35.475Z,95.40
2019-04-28T22:38:04.594Z,95.00
2019-04-28T22:40:33.740Z,94.90
2019-04-28T22:43:02.671Z,95.00
2019-04-28T22:45:31.947Z,94.90
2019-04-28T22:48:01.072Z,94.80
2019-04-28T22:50:38.404Z,94.50
2019-04-28T22:53:07.522Z,94.50
2019-04-28T22:55:41.600Z,94.40
2019-04-28T22:58:35.657Z,94.90
2019-04-28T23:01:22.444Z,95.00
2019-04-28T23:04:04.392Z,95.20
2019-04-28T23:06:33.602Z,95.30
2019-04-28T23:09:02.770Z,95.60
2019-04-28T23:11:32.002Z,96.10
2019-04-28T23:14:01.147Z,95.80
2019-04-28T23:16:30.287Z,95.70
2019-04-28T23:19:00.924Z,96.00
2019-04-28T23:21:40.511Z,96.30
2019-04-28T23:24:09.661Z,96.40
2019-04-28T23:26:38.683Z,96.40
2019-04-28T23:29:07.893Z,96.30
2019-04-28T23:31:37.362Z,96.40
2019-04-28T23:34:06.598Z,96.60
2019-04-28T23:36:35.607Z,96.70
2019-04-28T23:39:07.228Z,96.80
2019-04-28T23:41:55.360Z,97.10
2019-04-28T23:44:24.296Z,97.20
2019-04-28T23:46:57.995Z,97.40
2019-04-28T23:49:28.280Z,97.50
2019-04-28T23:52:14.829Z,97.60
2019-04-28T23:54:45.602Z,97.70
2019-04-28T23:57:14.542Z,97.80
2019-04-28T23:59:43.516Z,97.80
